sensor_id;sensor_type;location;lat;lon;timestamp;pressure;altitude;pressure_sealevel;temperature
72054;BMP280;59918;51.280;7.950;2023-06-05T00:01:25;98473.50;;;10.74
72054;BMP280;59918;51.280;7.950;2023-06-05T00:03:50;98473.25;;;10.69
72054;BMP280;59918;51.280;7.950;2023-06-05T00:06:15;98475.44;;;10.65
72054;BMP280;59918;51.280;7.950;2023-06-05T00:08:40;98467.47;;;10.60
72054;BMP280;59918;51.280;7.950;2023-06-05T00:11:06;98470.59;;;10.56
72054;BMP280;59918;51.280;7.950;2023-06-05T00:13:31;98468.81;;;10.56
72054;BMP280;59918;51.280;7.950;2023-06-05T00:16:02;98474.97;;;10.56
72054;BMP280;59918;51.280;7.950;2023-06-05T00:18:27;98475.31;;;10.53
72054;BMP280;59918;51.280;7.950;2023-06-05T00:20:52;98474.91;;;10.49
72054;BMP280;59918;51.280;7.950;2023-06-05T00:23:18;98477.06;;;10.46
72054;BMP280;59918;51.280;7.950;2023-06-05T00:25:43;98477.81;;;10.40
72054;BMP280;59918;51.280;7.950;2023-06-05T00:28:11;98478.00;;;10.38
72054;BMP280;59918;51.280;7.950;2023-06-05T00:30:37;98473.59;;;10.32
72054;BMP280;59918;51.280;7.950;2023-06-05T00:33:02;98472.38;;;10.28
72054;BMP280;59918;51.280;7.950;2023-06-05T00:35:27;98473.13;;;10.22
72054;BMP280;59918;51.280;7.950;2023-06-05T00:37:52;98468.72;;;10.17
72054;BMP280;59918;51.280;7.950;2023-06-05T00:40:25;98469.69;;;10.16
72054;BMP280;59918;51.280;7.950;2023-06-05T00:42:50;98476.56;;;10.09
72054;BMP280;59918;51.280;7.950;2023-06-05T00:45:16;98473.72;;;10.04
72054;BMP280;59918;51.280;7.950;2023-06-05T00:47:41;98475.25;;;9.98
72054;BMP280;59918;51.280;7.950;2023-06-05T00:50:07;98470.84;;;9.92
72054;BMP280;59918;51.280;7.950;2023-06-05T00:52:36;98471.69;;;9.93
72054;BMP280;59918;51.280;7.950;2023-06-05T00:55:02;98473.94;;;9.88
72054;BMP280;59918;51.280;7.950;2023-06-05T00:57:27;98466.63;;;9.85
72054;BMP280;59918;51.280;7.950;2023-06-05T00:59:53;98468.94;;;9.80
72054;BMP280;59918;51.280;7.950;2023-06-05T01:02:18;98463.56;;;9.75
72054;BMP280;59918;51.280;7.950;2023-06-05T01:04:43;98474.19;;;9.72
72054;BMP280;59918;51.280;7.950;2023-06-05T01:07:12;98471.00;;;9.70
72054;BMP280;59918;51.280;7.950;2023-06-05T01:09:38;98461.47;;;9.64
72054;BMP280;59918;51.280;7.950;2023-06-05T01:12:09;98462.25;;;9.65
72054;BMP280;59918;51.280;7.950;2023-06-05T01:14:37;98463.41;;;9.62
72054;BMP280;59918;51.280;7.950;2023-06-05T01:17:04;98461.41;;;9.58
72054;BMP280;59918;51.280;7.950;2023-06-05T01:19:30;98466.88;;;9.55
72054;BMP280;59918;51.280;7.950;2023-06-05T01:21:55;98471.78;;;9.50
72054;BMP280;59918;51.280;7.950;2023-06-05T01:24:27;98464.25;;;9.48
72054;BMP280;59918;51.280;7.950;2023-06-05T01:29:29;98463.03;;;9.45
72054;BMP280;59918;51.280;7.950;2023-06-05T01:32:04;98468.88;;;9.39
72054;BMP280;59918;51.280;7.950;2023-06-05T01:34:38;98460.13;;;9.33
72054;BMP280;59918;51.280;7.950;2023-06-05T01:37:05;98464.03;;;9.29
72054;BMP280;59918;51.280;7.950;2023-06-05T01:39:30;98458.81;;;9.23
72054;BMP280;59918;51.280;7.950;2023-06-05T01:42:00;98458.22;;;9.21
72054;BMP280;59918;51.280;7.950;2023-06-05T01:44:26;98457.69;;;9.11
72054;BMP280;59918;51.280;7.950;2023-06-05T01:46:51;98460.97;;;9.05
72054;BMP280;59918;51.280;7.950;2023-06-05T01:49:17;98458.13;;;9.00
72054;BMP280;59918;51.280;7.950;2023-06-05T01:51:44;98457.72;;;8.97
72054;BMP280;59918;51.280;7.950;2023-06-05T01:54:12;98464.97;;;8.93
72054;BMP280;59918;51.280;7.950;2023-06-05T01:56:37;98462.31;;;8.87
72054;BMP280;59918;51.280;7.950;2023-06-05T01:59:03;98455.13;;;8.82
72054;BMP280;59918;51.280;7.950;2023-06-05T02:01:29;98461.25;;;8.81
72054;BMP280;59918;51.280;7.950;2023-06-05T02:03:54;98453.28;;;8.76
72054;BMP280;59918;51.280;7.950;2023-06-05T02:06:19;98450.47;;;8.72
72054;BMP280;59918;51.280;7.950;2023-06-05T02:08:50;98452.59;;;8.68
72054;BMP280;59918;51.280;7.950;2023-06-05T02:11:16;98453.75;;;8.66
72054;BMP280;59918;51.280;7.950;2023-06-05T02:13:41;98460.97;;;8.62
72054;BMP280;59918;51.280;7.950;2023-06-05T02:16:12;98455.06;;;8.62
72054;BMP280;59918;51.280;7.950;2023-06-05T02:18:37;98461.69;;;8.56
72054;BMP280;59918;51.280;7.950;2023-06-05T02:21:03;98458.50;;;8.54
72054;BMP280;59918;51.280;7.950;2023-06-05T02:23:29;98455.47;;;8.51
72054;BMP280;59918;51.280;7.950;2023-06-05T02:25:54;98440.63;;;8.46
72054;BMP280;59918;51.280;7.950;2023-06-05T02:28:20;98441.78;;;8.44
72054;BMP280;59918;51.280;7.950;2023-06-05T02:30:53;98449.03;;;8.40
72054;BMP280;59918;51.280;7.950;2023-06-05T02:33:19;98446.00;;;8.37
72054;BMP280;59918;51.280;7.950;2023-06-05T02:35:44;98449.72;;;8.35
72054;BMP280;59918;51.280;7.950;2023-06-05T02:38:12;98447.16;;;8.35
72054;BMP280;59918;51.280;7.950;2023-06-05T02:40:38;98450.88;;;8.32
72054;BMP280;59918;51.280;7.950;2023-06-05T02:43:03;98436.44;;;8.31
72054;BMP280;59918;51.280;7.950;2023-06-05T02:45:29;98445.28;;;8.29
72054;BMP280;59918;51.280;7.950;2023-06-05T02:47:54;98442.91;;;8.27
72054;BMP280;59918;51.280;7.950;2023-06-05T02:50:19;98442.44;;;8.24
72054;BMP280;59918;51.280;7.950;2023-06-05T02:52:44;98439.44;;;8.20
72054;BMP280;59918;51.280;7.950;2023-06-05T02:55:16;98443.94;;;8.18
72054;BMP280;59918;51.280;7.950;2023-06-05T02:57:41;98438.72;;;8.12
72054;BMP280;59918;51.280;7.950;2023-06-05T03:00:13;98435.81;;;8.15
72054;BMP280;59918;51.280;7.950;2023-06-05T03:02:38;98448.00;;;8.13
72054;BMP280;59918;51.280;7.950;2023-06-05T03:05:04;98445.25;;;8.14
72054;BMP280;59918;51.280;7.950;2023-06-05T03:07:29;98442.06;;;8.12
72054;BMP280;59918;51.280;7.950;2023-06-05T03:09:55;98443.22;;;8.10
72054;BMP280;59918;51.280;7.950;2023-06-05T03:12:21;98439.19;;;8.07
72054;BMP280;59918;51.280;7.950;2023-06-05T03:14:49;98440.00;;;8.08
72054;BMP280;59918;51.280;7.950;2023-06-05T03:17:14;98442.91;;;8.05
72054;BMP280;59918;51.280;7.950;2023-06-05T03:19:40;98453.16;;;8.05
72054;BMP280;59918;51.280;7.950;2023-06-05T03:22:05;98444.22;;;8.01
72054;BMP280;59918;51.280;7.950;2023-06-05T03:24:30;98442.16;;;7.97
72054;BMP280;59918;51.280;7.950;2023-06-05T03:26:56;98446.66;;;7.95
72054;BMP280;59918;51.280;7.950;2023-06-05T03:29:21;98435.78;;;7.93
72054;BMP280;59918;51.280;7.950;2023-06-05T03:31:49;98439.16;;;7.93
72054;BMP280;59918;51.280;7.950;2023-06-05T03:34:15;98439.50;;;7.90
72054;BMP280;59918;51.280;7.950;2023-06-05T03:36:40;98427.06;;;7.87
72054;BMP280;59918;51.280;7.950;2023-06-05T03:39:06;98434.28;;;7.84
72054;BMP280;59918;51.280;7.950;2023-06-05T03:41:31;98436.84;;;7.84
72054;BMP280;59918;51.280;7.950;2023-06-05T03:43:56;98436.22;;;7.82
72054;BMP280;59918;51.280;7.950;2023-06-05T03:46:22;98432.03;;;7.81
72054;BMP280;59918;51.280;7.950;2023-06-05T03:48:53;98431.09;;;7.82
72054;BMP280;59918;51.280;7.950;2023-06-05T03:51:18;98437.16;;;7.81
72054;BMP280;59918;51.280;7.950;2023-06-05T03:53:44;98431.25;;;7.80
72054;BMP280;59918;51.280;7.950;2023-06-05T03:56:15;98426.91;;;7.81
72054;BMP280;59918;51.280;7.950;2023-06-05T03:58:40;98439.72;;;7.81
72054;BMP280;59918;51.280;7.950;2023-06-05T04:01:06;98439.56;;;7.82
72054;BMP280;59918;51.280;7.950;2023-06-05T04:03:31;98436.22;;;7.82
72054;BMP280;59918;51.280;7.950;2023-06-05T04:05:56;98445.47;;;7.83
72054;BMP280;59918;51.280;7.950;2023-06-05T04:08:21;98440.81;;;7.86
72054;BMP280;59918;51.280;7.950;2023-06-05T04:10:50;98446.84;;;7.93
72054;BMP280;59918;51.280;7.950;2023-06-05T04:13:15;98446.66;;;7.95
72054;BMP280;59918;51.280;7.950;2023-06-05T04:15:40;98445.34;;;7.98
72054;BMP280;59918;51.280;7.950;2023-06-05T04:18:05;98442.47;;;8.01
72054;BMP280;59918;51.280;7.950;2023-06-05T04:20:31;98442.28;;;8.03
72054;BMP280;59918;51.280;7.950;2023-06-05T04:22:56;98443.34;;;8.08
72054;BMP280;59918;51.280;7.950;2023-06-05T04:25:21;98443.66;;;8.13
72054;BMP280;59918;51.280;7.950;2023-06-05T04:27:52;98445.00;;;8.24
72054;BMP280;59918;51.280;7.950;2023-06-05T04:30:18;98443.06;;;8.26
72054;BMP280;59918;51.280;7.950;2023-06-05T04:32:43;98447.06;;;8.28
72054;BMP280;59918;51.280;7.950;2023-06-05T04:35:09;98449.09;;;8.33
72054;BMP280;59918;51.280;7.950;2023-06-05T04:37:40;98446.00;;;8.37
72054;BMP280;59918;51.280;7.950;2023-06-05T04:40:06;98443.72;;;8.42
72054;BMP280;59918;51.280;7.950;2023-06-05T04:42:32;98444.59;;;8.49
72054;BMP280;59918;51.280;7.950;2023-06-05T04:44:59;98448.25;;;8.54
72054;BMP280;59918;51.280;7.950;2023-06-05T04:47:27;98454.25;;;8.61
72054;BMP280;59918;51.280;7.950;2023-06-05T04:49:52;98452.75;;;8.67
72054;BMP280;59918;51.280;7.950;2023-06-05T04:52:18;98446.28;;;8.71
72054;BMP280;59918;51.280;7.950;2023-06-05T04:54:43;98447.00;;;8.79
72054;BMP280;59918;51.280;7.950;2023-06-05T04:57:09;98452.06;;;8.87
72054;BMP280;59918;51.280;7.950;2023-06-05T04:59:35;98452.75;;;8.95
72054;BMP280;59918;51.280;7.950;2023-06-05T05:02:03;98450.09;;;9.03
72054;BMP280;59918;51.280;7.950;2023-06-05T05:04:31;98449.38;;;9.09
72054;BMP280;59918;51.280;7.950;2023-06-05T05:06:56;98447.69;;;9.16
72054;BMP280;59918;51.280;7.950;2023-06-05T05:09:21;98445.22;;;9.22
72054;BMP280;59918;51.280;7.950;2023-06-05T05:11:46;98441.53;;;9.31
72054;BMP280;59918;51.280;7.950;2023-06-05T05:14:17;98441.25;;;9.41
72054;BMP280;59918;51.280;7.950;2023-06-05T05:16:42;98442.94;;;9.48
72054;BMP280;59918;51.280;7.950;2023-06-05T05:19:07;98447.97;;;9.56
72054;BMP280;59918;51.280;7.950;2023-06-05T05:21:36;98444.09;;;9.66
72054;BMP280;59918;51.280;7.950;2023-06-05T05:24:01;98439.03;;;9.73
72054;BMP280;59918;51.280;7.950;2023-06-05T05:26:26;98442.91;;;9.83
72054;BMP280;59918;51.280;7.950;2023-06-05T05:28:57;98442.59;;;9.92
72054;BMP280;59918;51.280;7.950;2023-06-05T05:31:23;98439.72;;;10.02
72054;BMP280;59918;51.280;7.950;2023-06-05T05:33:48;98437.63;;;10.12
72054;BMP280;59918;51.280;7.950;2023-06-05T05:36:13;98437.31;;;10.21
72054;BMP280;59918;51.280;7.950;2023-06-05T05:38:39;98434.44;;;10.30
72054;BMP280;59918;51.280;7.950;2023-06-05T05:41:07;98435.50;;;10.42
72054;BMP280;59918;51.280;7.950;2023-06-05T05:43:33;98441.72;;;10.54
72054;BMP280;59918;51.280;7.950;2023-06-05T05:45:58;98439.41;;;10.65
72054;BMP280;59918;51.280;7.950;2023-06-05T05:48:23;98432.56;;;10.79
72054;BMP280;59918;51.280;7.950;2023-06-05T05:50:49;98426.50;;;10.93
72054;BMP280;59918;51.280;7.950;2023-06-05T05:53:14;98429.91;;;11.06
72054;BMP280;59918;51.280;7.950;2023-06-05T05:55:40;98428.97;;;11.20
72054;BMP280;59918;51.280;7.950;2023-06-05T05:58:08;98434.78;;;11.34
72054;BMP280;59918;51.280;7.950;2023-06-05T06:00:33;98427.94;;;11.48
72054;BMP280;59918;51.280;7.950;2023-06-05T06:02:58;98441.44;;;11.63
72054;BMP280;59918;51.280;7.950;2023-06-05T06:05:24;98442.25;;;11.76
72054;BMP280;59918;51.280;7.950;2023-06-05T06:07:49;98440.91;;;11.93
72054;BMP280;59918;51.280;7.950;2023-06-05T06:10:14;98439.50;;;12.09
72054;BMP280;59918;51.280;7.950;2023-06-05T06:12:40;98434.78;;;12.26
72054;BMP280;59918;51.280;7.950;2023-06-05T06:15:08;98440.72;;;12.45
72054;BMP280;59918;51.280;7.950;2023-06-05T06:17:34;98441.66;;;12.64
72054;BMP280;59918;51.280;7.950;2023-06-05T06:19:59;98437.91;;;12.79
72054;BMP280;59918;51.280;7.950;2023-06-05T06:22:24;98435.66;;;12.95
72054;BMP280;59918;51.280;7.950;2023-06-05T06:24:49;98435.00;;;13.13
72054;BMP280;59918;51.280;7.950;2023-06-05T06:27:15;98435.56;;;13.27
72054;BMP280;59918;51.280;7.950;2023-06-05T06:29:50;98434.66;;;13.46
72054;BMP280;59918;51.280;7.950;2023-06-05T06:32:17;98433.78;;;13.65
72054;BMP280;59918;51.280;7.950;2023-06-05T06:34:46;98431.28;;;13.83
72054;BMP280;59918;51.280;7.950;2023-06-05T06:37:14;98437.31;;;14.01
72054;BMP280;59918;51.280;7.950;2023-06-05T06:39:46;98435.59;;;14.19
72054;BMP280;59918;51.280;7.950;2023-06-05T06:42:11;98431.28;;;14.37
72054;BMP280;59918;51.280;7.950;2023-06-05T06:44:37;98427.34;;;14.53
72054;BMP280;59918;51.280;7.950;2023-06-05T06:47:02;98439.75;;;14.68
72054;BMP280;59918;51.280;7.950;2023-06-05T06:49:31;98433.75;;;14.86
72054;BMP280;59918;51.280;7.950;2023-06-05T06:51:59;98435.00;;;15.01
72054;BMP280;59918;51.280;7.950;2023-06-05T06:54:24;98438.41;;;15.19
72054;BMP280;59918;51.280;7.950;2023-06-05T06:56:50;98435.22;;;15.35
72054;BMP280;59918;51.280;7.950;2023-06-05T06:59:21;98436.41;;;15.50
72054;BMP280;59918;51.280;7.950;2023-06-05T07:02:07;98439.63;;;15.64
72054;BMP280;59918;51.280;7.950;2023-06-05T07:04:32;98431.00;;;15.81
72054;BMP280;59918;51.280;7.950;2023-06-05T07:06:57;98433.16;;;15.95
72054;BMP280;59918;51.280;7.950;2023-06-05T07:09:22;98431.38;;;16.07
72054;BMP280;59918;51.280;7.950;2023-06-05T07:11:48;98425.56;;;16.23
72054;BMP280;59918;51.280;7.950;2023-06-05T07:14:13;98424.34;;;16.37
72054;BMP280;59918;51.280;7.950;2023-06-05T07:16:38;98423.13;;;16.50
72054;BMP280;59918;51.280;7.950;2023-06-05T07:19:09;98427.75;;;16.60
72054;BMP280;59918;51.280;7.950;2023-06-05T07:21:34;98419.16;;;16.71
72054;BMP280;59918;51.280;7.950;2023-06-05T07:23:59;98420.84;;;16.88
72054;BMP280;59918;51.280;7.950;2023-06-05T07:26:25;98415.38;;;17.01
72054;BMP280;59918;51.280;7.950;2023-06-05T07:28:50;98415.25;;;17.18
72054;BMP280;59918;51.280;7.950;2023-06-05T07:31:21;98414.78;;;17.33
72054;BMP280;59918;51.280;7.950;2023-06-05T07:33:47;98415.03;;;17.48
72054;BMP280;59918;51.280;7.950;2023-06-05T07:36:13;98410.81;;;17.58
72054;BMP280;59918;51.280;7.950;2023-06-05T07:38:39;98407.47;;;17.74
72054;BMP280;59918;51.280;7.950;2023-06-05T07:41:08;98408.50;;;17.89
72054;BMP280;59918;51.280;7.950;2023-06-05T07:43:36;98404.91;;;18.06
72054;BMP280;59918;51.280;7.950;2023-06-05T07:46:03;98403.69;;;18.25
72054;BMP280;59918;51.280;7.950;2023-06-05T07:48:34;98402.69;;;18.47
72054;BMP280;59918;51.280;7.950;2023-06-05T07:51:00;98402.81;;;18.73
72054;BMP280;59918;51.280;7.950;2023-06-05T07:53:25;98396.81;;;18.94
72054;BMP280;59918;51.280;7.950;2023-06-05T07:55:53;98393.47;;;19.15
72054;BMP280;59918;51.280;7.950;2023-06-05T07:58:18;98396.59;;;19.38
72054;BMP280;59918;51.280;7.950;2023-06-05T08:00:44;98398.91;;;19.61
72054;BMP280;59918;51.280;7.950;2023-06-05T08:03:09;98391.78;;;19.77
72054;BMP280;59918;51.280;7.950;2023-06-05T08:05:34;98395.63;;;19.96
72054;BMP280;59918;51.280;7.950;2023-06-05T08:08:06;98394.75;;;20.17
72054;BMP280;59918;51.280;7.950;2023-06-05T08:10:31;98400.41;;;20.40
72054;BMP280;59918;51.280;7.950;2023-06-05T08:12:56;98395.56;;;20.58
72054;BMP280;59918;51.280;7.950;2023-06-05T08:15:21;98388.88;;;20.72
72054;BMP280;59918;51.280;7.950;2023-06-05T08:17:46;98391.06;;;20.85
72054;BMP280;59918;51.280;7.950;2023-06-05T08:20:17;98381.19;;;21.02
72054;BMP280;59918;51.280;7.950;2023-06-05T08:22:43;98388.06;;;21.23
72054;BMP280;59918;51.280;7.950;2023-06-05T08:25:08;98375.56;;;21.39
72054;BMP280;59918;51.280;7.950;2023-06-05T08:27:33;98365.94;;;21.60
72054;BMP280;59918;51.280;7.950;2023-06-05T08:29:59;98372.50;;;21.77
72054;BMP280;59918;51.280;7.950;2023-06-05T08:32:30;98373.81;;;21.89
72054;BMP280;59918;51.280;7.950;2023-06-05T08:34:55;98369.34;;;22.04
72054;BMP280;59918;51.280;7.950;2023-06-05T08:37:20;98367.81;;;22.23
72054;BMP280;59918;51.280;7.950;2023-06-05T08:39:46;98361.75;;;22.37
72054;BMP280;59918;51.280;7.950;2023-06-05T08:42:11;98359.91;;;22.53
72054;BMP280;59918;51.280;7.950;2023-06-05T08:44:40;98357.75;;;22.70
72054;BMP280;59918;51.280;7.950;2023-06-05T08:47:07;98365.84;;;22.88
72054;BMP280;59918;51.280;7.950;2023-06-05T08:49:33;98357.16;;;22.92
72054;BMP280;59918;51.280;7.950;2023-06-05T08:52:06;98359.19;;;23.10
72054;BMP280;59918;51.280;7.950;2023-06-05T08:54:36;98343.91;;;23.27
72054;BMP280;59918;51.280;7.950;2023-06-05T08:57:03;98343.00;;;23.46
72054;BMP280;59918;51.280;7.950;2023-06-05T08:59:29;98349.50;;;23.58
72054;BMP280;59918;51.280;7.950;2023-06-05T09:01:54;98349.44;;;23.68
72054;BMP280;59918;51.280;7.950;2023-06-05T09:04:19;98349.84;;;23.85
72054;BMP280;59918;51.280;7.950;2023-06-05T09:06:46;98346.56;;;23.98
72054;BMP280;59918;51.280;7.950;2023-06-05T09:09:11;98344.16;;;24.06
72054;BMP280;59918;51.280;7.950;2023-06-05T09:11:36;98342.44;;;24.20
72054;BMP280;59918;51.280;7.950;2023-06-05T09:14:02;98336.00;;;24.36
72054;BMP280;59918;51.280;7.950;2023-06-05T09:16:38;98335.06;;;24.50
72054;BMP280;59918;51.280;7.950;2023-06-05T09:19:03;98341.22;;;24.64
72054;BMP280;59918;51.280;7.950;2023-06-05T09:21:30;98341.00;;;24.84
72054;BMP280;59918;51.280;7.950;2023-06-05T09:24:16;98333.97;;;25.02
72054;BMP280;59918;51.280;7.950;2023-06-05T09:26:54;98331.19;;;25.12
72054;BMP280;59918;51.280;7.950;2023-06-05T09:29:21;98332.06;;;25.26
72054;BMP280;59918;51.280;7.950;2023-06-05T09:31:48;98331.56;;;25.42
72054;BMP280;59918;51.280;7.950;2023-06-05T09:34:20;98329.53;;;25.53
72054;BMP280;59918;51.280;7.950;2023-06-05T09:36:46;98322.22;;;25.68
72054;BMP280;59918;51.280;7.950;2023-06-05T09:39:16;98324.28;;;25.89
72054;BMP280;59918;51.280;7.950;2023-06-05T09:41:42;98326.28;;;26.10
72054;BMP280;59918;51.280;7.950;2023-06-05T09:44:08;98331.06;;;26.08
72054;BMP280;59918;51.280;7.950;2023-06-05T09:46:34;98325.50;;;26.10
72054;BMP280;59918;51.280;7.950;2023-06-05T09:48:59;98317.56;;;26.28
72054;BMP280;59918;51.280;7.950;2023-06-05T09:51:24;98316.91;;;26.49
72054;BMP280;59918;51.280;7.950;2023-06-05T09:53:50;98318.38;;;26.69
72054;BMP280;59918;51.280;7.950;2023-06-05T09:56:17;98306.25;;;26.94
72054;BMP280;59918;51.280;7.950;2023-06-05T09:58:50;98311.00;;;27.06
72054;BMP280;59918;51.280;7.950;2023-06-05T10:01:23;98314.28;;;27.24
72054;BMP280;59918;51.280;7.950;2023-06-05T10:03:55;98311.78;;;27.54
72054;BMP280;59918;51.280;7.950;2023-06-05T10:06:22;98308.34;;;27.97
72054;BMP280;59918;51.280;7.950;2023-06-05T10:08:48;98292.94;;;28.21
72054;BMP280;59918;51.280;7.950;2023-06-05T10:11:13;98299.38;;;28.59
72054;BMP280;59918;51.280;7.950;2023-06-05T10:13:39;98290.13;;;28.86
72054;BMP280;59918;51.280;7.950;2023-06-05T10:16:04;98294.19;;;29.09
72054;BMP280;59918;51.280;7.950;2023-06-05T10:18:30;98291.91;;;29.24
72054;BMP280;59918;51.280;7.950;2023-06-05T10:20:57;98289.53;;;29.56
72054;BMP280;59918;51.280;7.950;2023-06-05T10:23:24;98286.09;;;29.98
72054;BMP280;59918;51.280;7.950;2023-06-05T10:25:50;98277.13;;;30.27
72054;BMP280;59918;51.280;7.950;2023-06-05T10:31:10;98270.94;;;31.50
72054;BMP280;59918;51.280;7.950;2023-06-05T10:39:13;98265.31;;;32.51
72054;BMP280;59918;51.280;7.950;2023-06-05T10:41:39;98271.53;;;32.90
72054;BMP280;59918;51.280;7.950;2023-06-05T10:44:05;98259.75;;;33.30
72054;BMP280;59918;51.280;7.950;2023-06-05T10:46:32;98267.94;;;33.49
72054;BMP280;59918;51.280;7.950;2023-06-05T10:54:01;98267.41;;;34.13
72054;BMP280;59918;51.280;7.950;2023-06-05T10:59:17;98263.53;;;34.87
72054;BMP280;59918;51.280;7.950;2023-06-05T11:01:42;98245.44;;;35.34
72054;BMP280;59918;51.280;7.950;2023-06-05T11:04:08;98251.25;;;35.76
72054;BMP280;59918;51.280;7.950;2023-06-05T11:06:34;98254.69;;;36.18
72054;BMP280;59918;51.280;7.950;2023-06-05T11:09:13;98241.09;;;36.52
72054;BMP280;59918;51.280;7.950;2023-06-05T11:12:00;98246.06;;;36.76
72054;BMP280;59918;51.280;7.950;2023-06-05T11:14:45;98250.88;;;36.92
72054;BMP280;59918;51.280;7.950;2023-06-05T11:17:46;98239.78;;;37.49
72054;BMP280;59918;51.280;7.950;2023-06-05T11:30:38;98218.88;;;38.47
72054;BMP280;59918;51.280;7.950;2023-06-05T11:33:14;98216.88;;;38.37
72054;BMP280;59918;51.280;7.950;2023-06-05T11:35:41;98233.19;;;38.15
72054;BMP280;59918;51.280;7.950;2023-06-05T11:38:10;98229.34;;;38.16
72054;BMP280;59918;51.280;7.950;2023-06-05T11:40:38;98230.56;;;38.72
72054;BMP280;59918;51.280;7.950;2023-06-05T11:43:06;98212.44;;;39.29
72054;BMP280;59918;51.280;7.950;2023-06-05T11:45:42;98212.94;;;39.65
72054;BMP280;59918;51.280;7.950;2023-06-05T11:50:32;98217.25;;;40.04
72054;BMP280;59918;51.280;7.950;2023-06-05T11:53:08;98201.84;;;40.05
72054;BMP280;59918;51.280;7.950;2023-06-05T11:55:34;98202.22;;;40.34
72054;BMP280;59918;51.280;7.950;2023-06-05T11:57:59;98198.72;;;40.68
72054;BMP280;59918;51.280;7.950;2023-06-05T12:00:26;98195.59;;;40.87
72054;BMP280;59918;51.280;7.950;2023-06-05T12:02:51;98195.84;;;41.27
72054;BMP280;59918;51.280;7.950;2023-06-05T12:05:17;98195.28;;;41.53
72054;BMP280;59918;51.280;7.950;2023-06-05T12:07:42;98193.25;;;41.74
72054;BMP280;59918;51.280;7.950;2023-06-05T12:10:10;98189.78;;;41.77
72054;BMP280;59918;51.280;7.950;2023-06-05T12:12:50;98188.97;;;41.83
72054;BMP280;59918;51.280;7.950;2023-06-05T12:15:20;98178.63;;;42.22
72054;BMP280;59918;51.280;7.950;2023-06-05T12:17:53;98181.38;;;42.58
72054;BMP280;59918;51.280;7.950;2023-06-05T12:20:19;98174.09;;;42.88
72054;BMP280;59918;51.280;7.950;2023-06-05T12:22:44;98172.34;;;43.05
72054;BMP280;59918;51.280;7.950;2023-06-05T12:27:45;98170.13;;;43.29
72054;BMP280;59918;51.280;7.950;2023-06-05T12:30:11;98161.16;;;43.62
72054;BMP280;59918;51.280;7.950;2023-06-05T12:32:37;98158.22;;;44.02
72054;BMP280;59918;51.280;7.950;2023-06-05T12:35:02;98166.94;;;44.36
72054;BMP280;59918;51.280;7.950;2023-06-05T12:37:29;98162.34;;;44.52
72054;BMP280;59918;51.280;7.950;2023-06-05T12:39:56;98163.56;;;44.70
72054;BMP280;59918;51.280;7.950;2023-06-05T12:42:21;98157.31;;;44.73
72054;BMP280;59918;51.280;7.950;2023-06-05T12:44:47;98154.66;;;45.08
72054;BMP280;59918;51.280;7.950;2023-06-05T12:47:12;98160.47;;;45.26
72054;BMP280;59918;51.280;7.950;2023-06-05T12:49:37;98153.84;;;45.62
72054;BMP280;59918;51.280;7.950;2023-06-05T12:52:05;98147.94;;;45.83
72054;BMP280;59918;51.280;7.950;2023-06-05T12:54:31;98152.50;;;45.86
72054;BMP280;59918;51.280;7.950;2023-06-05T12:56:56;98150.78;;;46.07
72054;BMP280;59918;51.280;7.950;2023-06-05T12:59:21;98144.44;;;46.42
72054;BMP280;59918;51.280;7.950;2023-06-05T13:01:46;98141.19;;;46.63
72054;BMP280;59918;51.280;7.950;2023-06-05T13:04:12;98138.41;;;46.78
72054;BMP280;59918;51.280;7.950;2023-06-05T13:06:37;98143.38;;;46.96
72054;BMP280;59918;51.280;7.950;2023-06-05T13:09:02;98130.53;;;47.21
72054;BMP280;59918;51.280;7.950;2023-06-05T13:11:28;98132.44;;;47.48
72054;BMP280;59918;51.280;7.950;2023-06-05T13:13:53;98139.28;;;47.53
72054;BMP280;59918;51.280;7.950;2023-06-05T13:16:18;98138.88;;;47.54
72054;BMP280;59918;51.280;7.950;2023-06-05T13:18:43;98133.28;;;47.45
72054;BMP280;59918;51.280;7.950;2023-06-05T13:21:09;98127.88;;;46.80
72054;BMP280;59918;51.280;7.950;2023-06-05T13:23:34;98120.84;;;47.07
72054;BMP280;59918;51.280;7.950;2023-06-05T13:26:00;98120.22;;;47.41
72054;BMP280;59918;51.280;7.950;2023-06-05T13:28:25;98117.69;;;47.83
72054;BMP280;59918;51.280;7.950;2023-06-05T13:30:51;98116.84;;;48.19
72054;BMP280;59918;51.280;7.950;2023-06-05T13:33:18;98113.00;;;48.51
72054;BMP280;59918;51.280;7.950;2023-06-05T13:35:44;98115.91;;;48.56
72054;BMP280;59918;51.280;7.950;2023-06-05T13:38:09;98116.94;;;48.71
72054;BMP280;59918;51.280;7.950;2023-06-05T13:40:34;98113.13;;;48.90
72054;BMP280;59918;51.280;7.950;2023-06-05T13:42:59;98109.25;;;48.99
72054;BMP280;59918;51.280;7.950;2023-06-05T13:45:24;98099.88;;;49.09
72054;BMP280;59918;51.280;7.950;2023-06-05T13:47:50;98106.53;;;49.08
72054;BMP280;59918;51.280;7.950;2023-06-05T13:50:15;98108.34;;;49.32
72054;BMP280;59918;51.280;7.950;2023-06-05T13:52:40;98098.56;;;49.62
72054;BMP280;59918;51.280;7.950;2023-06-05T13:55:06;98096.66;;;49.98
72054;BMP280;59918;51.280;7.950;2023-06-05T13:57:31;98099.25;;;50.01
72054;BMP280;59918;51.280;7.950;2023-06-05T13:59:57;98096.09;;;50.29
72054;BMP280;59918;51.280;7.950;2023-06-05T14:02:22;98095.00;;;50.44
72054;BMP280;59918;51.280;7.950;2023-06-05T14:04:47;98089.06;;;50.64
72054;BMP280;59918;51.280;7.950;2023-06-05T14:07:12;98101.06;;;50.57
72054;BMP280;59918;51.280;7.950;2023-06-05T14:09:38;98091.22;;;50.51
72054;BMP280;59918;51.280;7.950;2023-06-05T14:12:03;98091.50;;;50.62
72054;BMP280;59918;51.280;7.950;2023-06-05T14:14:29;98089.78;;;50.73
72054;BMP280;59918;51.280;7.950;2023-06-05T14:16:54;98089.53;;;50.44
72054;BMP280;59918;51.280;7.950;2023-06-05T14:19:19;98080.22;;;50.69
72054;BMP280;59918;51.280;7.950;2023-06-05T14:21:44;98092.81;;;50.75
72054;BMP280;59918;51.280;7.950;2023-06-05T14:24:10;98089.22;;;50.43
72054;BMP280;59918;51.280;7.950;2023-06-05T14:26:35;98082.88;;;50.19
72054;BMP280;59918;51.280;7.950;2023-06-05T14:29:00;98079.94;;;50.40
72054;BMP280;59918;51.280;7.950;2023-06-05T14:31:26;98084.69;;;50.48
72054;BMP280;59918;51.280;7.950;2023-06-05T14:33:54;98086.22;;;50.23
72054;BMP280;59918;51.280;7.950;2023-06-05T14:36:19;98076.47;;;49.86
72054;BMP280;59918;51.280;7.950;2023-06-05T14:38:44;98082.25;;;49.97
72054;BMP280;59918;51.280;7.950;2023-06-05T14:41:11;98083.59;;;49.36
72054;BMP280;59918;51.280;7.950;2023-06-05T14:43:36;98082.59;;;49.12
72054;BMP280;59918;51.280;7.950;2023-06-05T14:46:01;98078.88;;;49.28